메인 페이지
METAR-TAF:

METAR-TAF

공항 :

망갈로르, 인도

위도: 12-55N, 경도: 074-53E, 고도: 102m

현재 날씨관측

예보는 9분 전, 08:30시(UTC)에 발표되었습니다.
서남서5kt
온도 25°C
습도 94%
기압 1008 hPa
시정: 5000m
고도 600ft 상공 구름 조금
고도 1200ft 상공 구름 보통
고도 8000ft 상공 구름 많음
약한비

METAR: VOML 240830Z 24005KT 5000 -RA FEW006 SCT012 BKN080 25/24 Q1008 NOSIG

시각: 14:09 (08:39 UTC)

예보

예보는 3 시간 39분 전, 05:00시(UTC)에 발표되었습니다.
예보 대상 시간: 24일 06시부터 25일 12시까지 (UTC)
10kt
시정: 6000m
고도 1200ft 상공 구름 보통
고도 8000ft 상공 구름 많음
일시적
24일 09시부터 24일 15시까지 (UTC)
시정: 3000m
고도 800ft 상공 구름 보통
고도 1200ft 상공 구름 보통
고도 8000ft 상공 구름 많음
비, 이슬비
전환 중
24일 15시부터 24일 16시까지 (UTC)

TAF: VOML 240500Z 2406/2512 27010KT 6000 SCT012 BKN080 TEMPO 2409/2415 3000 RA DZ SCT008 SCT012 BKN080 BECMG 2415/2416

4,000개 이상의 공항 관측 자료 및 예보 (METAR 및 TAF 보고).

지도상에서 검색 가능한 기상관측소가 노란 점과 빨간 점으로 표시되어 있습니다.

기상관측소 명을 보려면 표시 위로 마우스를 이동하세요.

날씨 관측과 예보를 보려면 클릭하세요.

지도 변경 : 확대하려면 엑스 표시가 있는 녹색 버튼, 축소하려면 빼기 표시가 있는 녹색 버튼, 다음 페이지의 지도를 보려면 녹색 화살표를 클릭하세요.


METAR-TAF: